sensor_id;sensor_type;location;lat;lon;timestamp;P1;durP1;ratioP1;P2;durP2;ratioP2
60502;SDS011;51448;51.660;5.824;2023-02-28T00:01:28;12.23;;;10.15;;
60502;SDS011;51448;51.660;5.824;2023-02-28T00:03:57;16.00;;;10.77;;
60502;SDS011;51448;51.660;5.824;2023-02-28T00:06:25;13.85;;;10.35;;
60502;SDS011;51448;51.660;5.824;2023-02-28T00:08:53;14.93;;;10.90;;
60502;SDS011;51448;51.660;5.824;2023-02-28T00:11:22;14.52;;;10.75;;
60502;SDS011;51448;51.660;5.824;2023-02-28T00:13:50;12.88;;;10.70;;
60502;SDS011;51448;51.660;5.824;2023-02-28T00:16:18;14.00;;;10.52;;
60502;SDS011;51448;51.660;5.824;2023-02-28T00:18:49;14.40;;;10.32;;
60502;SDS011;51448;51.660;5.824;2023-02-28T00:21:18;14.43;;;10.88;;
60502;SDS011;51448;51.660;5.824;2023-02-28T00:23:47;14.43;;;10.15;;
60502;SDS011;51448;51.660;5.824;2023-02-28T00:26:15;13.07;;;10.15;;
60502;SDS011;51448;51.660;5.824;2023-02-28T00:28:45;14.40;;;10.45;;
60502;SDS011;51448;51.660;5.824;2023-02-28T00:31:13;14.05;;;10.38;;
60502;SDS011;51448;51.660;5.824;2023-02-28T00:33:40;15.82;;;10.70;;
60502;SDS011;51448;51.660;5.824;2023-02-28T00:36:10;14.35;;;9.70;;
60502;SDS011;51448;51.660;5.824;2023-02-28T00:38:38;14.30;;;10.50;;
60502;SDS011;51448;51.660;5.824;2023-02-28T00:41:07;13.90;;;10.77;;
60502;SDS011;51448;51.660;5.824;2023-02-28T00:43:36;15.93;;;9.70;;
60502;SDS011;51448;51.660;5.824;2023-02-28T00:46:06;11.82;;;9.95;;
60502;SDS011;51448;51.660;5.824;2023-02-28T00:48:34;12.25;;;10.05;;
60502;SDS011;51448;51.660;5.824;2023-02-28T00:51:03;12.82;;;9.50;;
60502;SDS011;51448;51.660;5.824;2023-02-28T00:53:31;16.83;;;9.55;;
60502;SDS011;51448;51.660;5.824;2023-02-28T00:55:59;12.88;;;9.23;;
60502;SDS011;51448;51.660;5.824;2023-02-28T00:58:27;10.63;;;9.30;;
60502;SDS011;51448;51.660;5.824;2023-02-28T01:00:55;12.38;;;9.10;;
60502;SDS011;51448;51.660;5.824;2023-02-28T01:03:22;12.00;;;9.63;;
60502;SDS011;51448;51.660;5.824;2023-02-28T01:05:51;13.88;;;9.60;;
60502;SDS011;51448;51.660;5.824;2023-02-28T01:08:20;16.83;;;10.77;;
60502;SDS011;51448;51.660;5.824;2023-02-28T01:10:48;13.98;;;10.02;;
60502;SDS011;51448;51.660;5.824;2023-02-28T01:13:15;13.40;;;10.02;;
60502;SDS011;51448;51.660;5.824;2023-02-28T01:15:45;15.07;;;10.10;;
60502;SDS011;51448;51.660;5.824;2023-02-28T01:18:19;12.60;;;9.60;;
60502;SDS011;51448;51.660;5.824;2023-02-28T01:20:47;13.55;;;10.35;;
60502;SDS011;51448;51.660;5.824;2023-02-28T01:23:16;13.73;;;10.05;;
60502;SDS011;51448;51.660;5.824;2023-02-28T01:25:43;14.48;;;10.50;;
60502;SDS011;51448;51.660;5.824;2023-02-28T01:28:11;13.02;;;9.38;;
60502;SDS011;51448;51.660;5.824;2023-02-28T01:30:38;13.90;;;10.85;;
60502;SDS011;51448;51.660;5.824;2023-02-28T01:33:06;13.00;;;10.00;;
60502;SDS011;51448;51.660;5.824;2023-02-28T01:35:34;11.68;;;9.55;;
60502;SDS011;51448;51.660;5.824;2023-02-28T01:38:03;14.10;;;10.57;;
60502;SDS011;51448;51.660;5.824;2023-02-28T01:40:47;13.85;;;10.45;;
60502;SDS011;51448;51.660;5.824;2023-02-28T01:43:26;13.25;;;10.38;;
60502;SDS011;51448;51.660;5.824;2023-02-28T01:45:57;16.70;;;10.93;;
60502;SDS011;51448;51.660;5.824;2023-02-28T01:48:27;13.95;;;11.30;;
60502;SDS011;51448;51.660;5.824;2023-02-28T01:51:03;13.80;;;11.25;;
60502;SDS011;51448;51.660;5.824;2023-02-28T01:53:46;13.50;;;11.05;;
60502;SDS011;51448;51.660;5.824;2023-02-28T01:56:20;12.45;;;10.60;;
60502;SDS011;51448;51.660;5.824;2023-02-28T01:58:55;14.05;;;10.55;;
60502;SDS011;51448;51.660;5.824;2023-02-28T02:01:24;13.05;;;10.85;;
60502;SDS011;51448;51.660;5.824;2023-02-28T02:03:57;14.82;;;12.02;;
60502;SDS011;51448;51.660;5.824;2023-02-28T02:06:36;13.07;;;11.35;;
60502;SDS011;51448;51.660;5.824;2023-02-28T02:09:11;16.65;;;11.55;;
60502;SDS011;51448;51.660;5.824;2023-02-28T02:11:39;13.68;;;10.55;;
60502;SDS011;51448;51.660;5.824;2023-02-28T02:25:56;16.77;;;11.18;;
60502;SDS011;51448;51.660;5.824;2023-02-28T02:29:01;13.80;;;9.75;;
60502;SDS011;51448;51.660;5.824;2023-02-28T02:37:59;12.10;;;8.63;;
60502;SDS011;51448;51.660;5.824;2023-02-28T02:40:38;11.50;;;9.23;;
60502;SDS011;51448;51.660;5.824;2023-02-28T02:46:14;11.20;;;8.57;;
60502;SDS011;51448;51.660;5.824;2023-02-28T02:48:54;13.18;;;9.30;;
60502;SDS011;51448;51.660;5.824;2023-02-28T02:51:27;11.85;;;8.57;;
60502;SDS011;51448;51.660;5.824;2023-02-28T02:54:04;13.48;;;8.60;;
60502;SDS011;51448;51.660;5.824;2023-02-28T02:56:42;14.65;;;9.70;;
60502;SDS011;51448;51.660;5.824;2023-02-28T02:59:18;11.80;;;8.63;;
60502;SDS011;51448;51.660;5.824;2023-02-28T03:01:57;11.13;;;9.02;;
60502;SDS011;51448;51.660;5.824;2023-02-28T03:04:35;11.88;;;8.63;;
60502;SDS011;51448;51.660;5.824;2023-02-28T03:07:10;16.70;;;8.68;;
60502;SDS011;51448;51.660;5.824;2023-02-28T03:09:39;11.68;;;8.43;;
60502;SDS011;51448;51.660;5.824;2023-02-28T03:12:09;12.93;;;8.50;;
60502;SDS011;51448;51.660;5.824;2023-02-28T03:14:46;11.98;;;8.70;;
60502;SDS011;51448;51.660;5.824;2023-02-28T03:26:12;10.30;;;8.15;;
60502;SDS011;51448;51.660;5.824;2023-02-28T03:31:52;12.35;;;8.32;;
60502;SDS011;51448;51.660;5.824;2023-02-28T03:34:37;12.07;;;8.38;;
60502;SDS011;51448;51.660;5.824;2023-02-28T03:37:19;13.55;;;8.20;;
60502;SDS011;51448;51.660;5.824;2023-02-28T03:39:59;12.10;;;9.02;;
60502;SDS011;51448;51.660;5.824;2023-02-28T03:42:36;11.63;;;8.60;;
60502;SDS011;51448;51.660;5.824;2023-02-28T03:45:10;12.05;;;9.02;;
60502;SDS011;51448;51.660;5.824;2023-02-28T03:47:47;11.45;;;8.68;;
60502;SDS011;51448;51.660;5.824;2023-02-28T03:50:23;14.93;;;8.07;;
60502;SDS011;51448;51.660;5.824;2023-02-28T03:53:00;11.82;;;8.65;;
60502;SDS011;51448;51.660;5.824;2023-02-28T03:55:39;10.73;;;7.60;;
60502;SDS011;51448;51.660;5.824;2023-02-28T04:00:57;11.98;;;7.35;;
60502;SDS011;51448;51.660;5.824;2023-02-28T04:03:35;12.02;;;7.82;;
60502;SDS011;51448;51.660;5.824;2023-02-28T04:06:05;12.32;;;7.68;;
60502;SDS011;51448;51.660;5.824;2023-02-28T04:08:41;12.00;;;7.53;;
60502;SDS011;51448;51.660;5.824;2023-02-28T04:11:12;11.23;;;6.97;;
60502;SDS011;51448;51.660;5.824;2023-02-28T04:14:03;11.65;;;6.63;;
60502;SDS011;51448;51.660;5.824;2023-02-28T04:16:34;9.88;;;6.60;;
60502;SDS011;51448;51.660;5.824;2023-02-28T04:19:05;10.00;;;6.10;;
60502;SDS011;51448;51.660;5.824;2023-02-28T04:21:36;9.73;;;6.47;;
60502;SDS011;51448;51.660;5.824;2023-02-28T04:24:11;11.93;;;6.50;;
60502;SDS011;51448;51.660;5.824;2023-02-28T04:26:45;8.63;;;6.20;;
60502;SDS011;51448;51.660;5.824;2023-02-28T04:29:20;9.15;;;5.90;;
60502;SDS011;51448;51.660;5.824;2023-02-28T04:31:51;9.57;;;6.30;;
60502;SDS011;51448;51.660;5.824;2023-02-28T04:34:21;8.70;;;5.18;;
60502;SDS011;51448;51.660;5.824;2023-02-28T04:36:49;10.60;;;5.90;;
60502;SDS011;51448;51.660;5.824;2023-02-28T04:39:36;8.60;;;5.68;;
60502;SDS011;51448;51.660;5.824;2023-02-28T04:42:04;9.63;;;5.75;;
60502;SDS011;51448;51.660;5.824;2023-02-28T04:44:32;8.82;;;5.80;;
60502;SDS011;51448;51.660;5.824;2023-02-28T04:46:59;9.70;;;5.43;;
60502;SDS011;51448;51.660;5.824;2023-02-28T04:49:27;7.93;;;5.30;;
60502;SDS011;51448;51.660;5.824;2023-02-28T04:51:55;8.85;;;5.70;;
60502;SDS011;51448;51.660;5.824;2023-02-28T04:54:22;8.52;;;5.72;;
60502;SDS011;51448;51.660;5.824;2023-02-28T04:56:50;8.60;;;5.60;;
60502;SDS011;51448;51.660;5.824;2023-02-28T04:59:17;8.15;;;5.53;;
60502;SDS011;51448;51.660;5.824;2023-02-28T05:01:46;9.07;;;5.72;;
60502;SDS011;51448;51.660;5.824;2023-02-28T05:04:16;7.80;;;5.22;;
60502;SDS011;51448;51.660;5.824;2023-02-28T05:06:44;8.70;;;5.57;;
60502;SDS011;51448;51.660;5.824;2023-02-28T05:09:12;8.25;;;5.45;;
60502;SDS011;51448;51.660;5.824;2023-02-28T05:11:40;8.88;;;5.75;;
60502;SDS011;51448;51.660;5.824;2023-02-28T05:14:12;9.23;;;5.57;;
60502;SDS011;51448;51.660;5.824;2023-02-28T05:19:38;9.27;;;6.40;;
60502;SDS011;51448;51.660;5.824;2023-02-28T05:22:10;9.20;;;5.95;;
60502;SDS011;51448;51.660;5.824;2023-02-28T05:24:43;9.35;;;6.13;;
60502;SDS011;51448;51.660;5.824;2023-02-28T05:27:11;10.95;;;6.15;;
60502;SDS011;51448;51.660;5.824;2023-02-28T05:29:38;7.88;;;5.95;;
60502;SDS011;51448;51.660;5.824;2023-02-28T05:32:12;9.77;;;6.75;;
60502;SDS011;51448;51.660;5.824;2023-02-28T05:34:41;9.88;;;6.40;;
60502;SDS011;51448;51.660;5.824;2023-02-28T05:37:11;11.80;;;6.82;;
60502;SDS011;51448;51.660;5.824;2023-02-28T05:39:40;11.07;;;6.78;;
60502;SDS011;51448;51.660;5.824;2023-02-28T05:42:08;10.10;;;6.40;;
60502;SDS011;51448;51.660;5.824;2023-02-28T05:44:36;10.05;;;5.95;;
60502;SDS011;51448;51.660;5.824;2023-02-28T05:47:03;9.48;;;5.80;;
60502;SDS011;51448;51.660;5.824;2023-02-28T05:49:32;9.65;;;6.05;;
60502;SDS011;51448;51.660;5.824;2023-02-28T05:52:00;8.60;;;6.00;;
60502;SDS011;51448;51.660;5.824;2023-02-28T05:54:27;9.13;;;5.82;;
60502;SDS011;51448;51.660;5.824;2023-02-28T05:56:55;8.82;;;6.20;;
60502;SDS011;51448;51.660;5.824;2023-02-28T05:59:22;10.82;;;6.30;;
60502;SDS011;51448;51.660;5.824;2023-02-28T06:01:50;10.73;;;6.75;;
60502;SDS011;51448;51.660;5.824;2023-02-28T06:04:24;9.68;;;7.05;;
60502;SDS011;51448;51.660;5.824;2023-02-28T06:06:58;10.23;;;6.50;;
60502;SDS011;51448;51.660;5.824;2023-02-28T06:09:26;12.15;;;6.72;;
60502;SDS011;51448;51.660;5.824;2023-02-28T06:11:53;12.95;;;7.15;;
60502;SDS011;51448;51.660;5.824;2023-02-28T06:14:25;11.13;;;7.40;;
60502;SDS011;51448;51.660;5.824;2023-02-28T06:16:53;12.15;;;7.43;;
60502;SDS011;51448;51.660;5.824;2023-02-28T06:19:23;8.68;;;6.97;;
60502;SDS011;51448;51.660;5.824;2023-02-28T06:21:55;11.57;;;6.25;;
60502;SDS011;51448;51.660;5.824;2023-02-28T06:24:24;9.65;;;6.82;;
60502;SDS011;51448;51.660;5.824;2023-02-28T06:26:57;10.48;;;6.60;;
60502;SDS011;51448;51.660;5.824;2023-02-28T06:29:32;11.30;;;6.20;;
60502;SDS011;51448;51.660;5.824;2023-02-28T06:32:01;10.95;;;7.00;;
60502;SDS011;51448;51.660;5.824;2023-02-28T06:34:30;11.73;;;6.90;;
60502;SDS011;51448;51.660;5.824;2023-02-28T06:36:58;9.18;;;6.45;;
60502;SDS011;51448;51.660;5.824;2023-02-28T06:39:29;9.70;;;6.70;;
60502;SDS011;51448;51.660;5.824;2023-02-28T06:41:57;10.30;;;6.97;;
60502;SDS011;51448;51.660;5.824;2023-02-28T06:44:25;10.85;;;7.50;;
60502;SDS011;51448;51.660;5.824;2023-02-28T06:46:53;12.75;;;7.35;;
60502;SDS011;51448;51.660;5.824;2023-02-28T06:49:21;9.82;;;7.18;;
60502;SDS011;51448;51.660;5.824;2023-02-28T06:51:48;9.25;;;7.18;;
60502;SDS011;51448;51.660;5.824;2023-02-28T06:54:17;12.05;;;6.53;;
60502;SDS011;51448;51.660;5.824;2023-02-28T06:56:44;11.88;;;8.13;;
60502;SDS011;51448;51.660;5.824;2023-02-28T06:59:12;17.55;;;8.43;;
60502;SDS011;51448;51.660;5.824;2023-02-28T07:01:40;12.10;;;8.23;;
60502;SDS011;51448;51.660;5.824;2023-02-28T07:04:08;11.07;;;7.53;;
60502;SDS011;51448;51.660;5.824;2023-02-28T07:06:36;11.32;;;7.25;;
60502;SDS011;51448;51.660;5.824;2023-02-28T07:09:04;10.85;;;6.78;;
60502;SDS011;51448;51.660;5.824;2023-02-28T07:14:03;10.02;;;6.53;;
60502;SDS011;51448;51.660;5.824;2023-02-28T07:16:31;10.88;;;6.47;;
60502;SDS011;51448;51.660;5.824;2023-02-28T07:18:59;8.68;;;6.03;;
60502;SDS011;51448;51.660;5.824;2023-02-28T07:21:26;9.90;;;6.32;;
60502;SDS011;51448;51.660;5.824;2023-02-28T07:23:55;10.50;;;6.05;;
60502;SDS011;51448;51.660;5.824;2023-02-28T07:26:24;9.00;;;5.90;;
60502;SDS011;51448;51.660;5.824;2023-02-28T07:28:51;9.80;;;6.15;;
60502;SDS011;51448;51.660;5.824;2023-02-28T07:31:19;9.15;;;5.68;;
60502;SDS011;51448;51.660;5.824;2023-02-28T07:33:47;8.30;;;5.70;;
60502;SDS011;51448;51.660;5.824;2023-02-28T07:36:16;8.40;;;5.50;;
60502;SDS011;51448;51.660;5.824;2023-02-28T07:38:46;9.18;;;5.57;;
60502;SDS011;51448;51.660;5.824;2023-02-28T07:41:18;9.50;;;5.13;;
60502;SDS011;51448;51.660;5.824;2023-02-28T07:43:52;8.25;;;5.28;;
60502;SDS011;51448;51.660;5.824;2023-02-28T07:46:23;8.52;;;4.90;;
60502;SDS011;51448;51.660;5.824;2023-02-28T07:48:50;7.57;;;4.95;;
60502;SDS011;51448;51.660;5.824;2023-02-28T07:51:19;8.65;;;4.82;;
60502;SDS011;51448;51.660;5.824;2023-02-28T07:53:47;8.00;;;4.88;;
60502;SDS011;51448;51.660;5.824;2023-02-28T07:56:15;9.80;;;5.13;;
60502;SDS011;51448;51.660;5.824;2023-02-28T07:58:43;6.93;;;4.10;;
60502;SDS011;51448;51.660;5.824;2023-02-28T08:01:11;6.85;;;4.03;;
60502;SDS011;51448;51.660;5.824;2023-02-28T08:03:39;7.90;;;3.80;;
60502;SDS011;51448;51.660;5.824;2023-02-28T08:06:15;6.68;;;3.13;;
60502;SDS011;51448;51.660;5.824;2023-02-28T08:08:46;8.52;;;3.90;;
60502;SDS011;51448;51.660;5.824;2023-02-28T08:11:15;5.35;;;2.85;;
60502;SDS011;51448;51.660;5.824;2023-02-28T08:13:45;5.53;;;3.05;;
60502;SDS011;51448;51.660;5.824;2023-02-28T08:16:13;6.07;;;3.45;;
60502;SDS011;51448;51.660;5.824;2023-02-28T08:18:45;5.55;;;2.90;;
60502;SDS011;51448;51.660;5.824;2023-02-28T08:21:12;5.85;;;2.67;;
60502;SDS011;51448;51.660;5.824;2023-02-28T08:23:40;7.00;;;2.90;;
60502;SDS011;51448;51.660;5.824;2023-02-28T08:26:08;5.57;;;2.65;;
60502;SDS011;51448;51.660;5.824;2023-02-28T08:28:35;5.18;;;2.78;;
60502;SDS011;51448;51.660;5.824;2023-02-28T08:31:06;5.82;;;2.90;;
60502;SDS011;51448;51.660;5.824;2023-02-28T08:33:37;6.15;;;2.78;;
60502;SDS011;51448;51.660;5.824;2023-02-28T08:36:06;5.43;;;2.95;;
60502;SDS011;51448;51.660;5.824;2023-02-28T08:38:36;5.68;;;2.78;;
60502;SDS011;51448;51.660;5.824;2023-02-28T08:41:05;6.03;;;2.80;;
60502;SDS011;51448;51.660;5.824;2023-02-28T08:43:39;5.85;;;3.03;;
60502;SDS011;51448;51.660;5.824;2023-02-28T08:46:08;5.93;;;2.70;;
60502;SDS011;51448;51.660;5.824;2023-02-28T08:48:41;5.90;;;2.65;;
60502;SDS011;51448;51.660;5.824;2023-02-28T08:51:10;6.95;;;2.63;;
60502;SDS011;51448;51.660;5.824;2023-02-28T08:53:43;6.22;;;2.60;;
60502;SDS011;51448;51.660;5.824;2023-02-28T08:56:15;6.50;;;2.75;;
60502;SDS011;51448;51.660;5.824;2023-02-28T08:58:46;4.97;;;2.60;;
60502;SDS011;51448;51.660;5.824;2023-02-28T09:01:17;5.78;;;2.97;;
60502;SDS011;51448;51.660;5.824;2023-02-28T09:03:55;5.68;;;2.85;;
60502;SDS011;51448;51.660;5.824;2023-02-28T09:06:25;5.93;;;2.42;;
60502;SDS011;51448;51.660;5.824;2023-02-28T09:08:58;5.75;;;2.70;;
60502;SDS011;51448;51.660;5.824;2023-02-28T09:11:28;6.28;;;2.70;;
60502;SDS011;51448;51.660;5.824;2023-02-28T09:13:56;5.10;;;2.53;;
60502;SDS011;51448;51.660;5.824;2023-02-28T09:16:27;5.93;;;2.28;;
60502;SDS011;51448;51.660;5.824;2023-02-28T09:18:55;5.45;;;2.60;;
60502;SDS011;51448;51.660;5.824;2023-02-28T09:21:22;4.95;;;2.35;;
60502;SDS011;51448;51.660;5.824;2023-02-28T09:23:50;5.22;;;2.20;;
60502;SDS011;51448;51.660;5.824;2023-02-28T09:26:23;5.88;;;2.22;;
60502;SDS011;51448;51.660;5.824;2023-02-28T09:29:04;3.92;;;2.08;;
60502;SDS011;51448;51.660;5.824;2023-02-28T09:31:32;4.60;;;2.20;;
60502;SDS011;51448;51.660;5.824;2023-02-28T09:34:00;4.75;;;2.00;;
60502;SDS011;51448;51.660;5.824;2023-02-28T09:36:28;5.32;;;2.25;;
60502;SDS011;51448;51.660;5.824;2023-02-28T09:39:10;4.25;;;2.08;;
60502;SDS011;51448;51.660;5.824;2023-02-28T09:41:40;5.40;;;2.08;;
60502;SDS011;51448;51.660;5.824;2023-02-28T09:44:31;4.65;;;1.70;;
60502;SDS011;51448;51.660;5.824;2023-02-28T09:47:13;3.90;;;2.05;;
60502;SDS011;51448;51.660;5.824;2023-02-28T09:49:51;3.95;;;1.63;;
60502;SDS011;51448;51.660;5.824;2023-02-28T09:52:21;4.60;;;1.90;;
60502;SDS011;51448;51.660;5.824;2023-02-28T09:55:18;3.37;;;1.70;;
60502;SDS011;51448;51.660;5.824;2023-02-28T09:58:11;5.60;;;2.00;;
60502;SDS011;51448;51.660;5.824;2023-02-28T10:00:58;3.55;;;1.70;;
60502;SDS011;51448;51.660;5.824;2023-02-28T10:03:40;3.78;;;1.55;;
60502;SDS011;51448;51.660;5.824;2023-02-28T10:06:20;4.78;;;1.90;;
60502;SDS011;51448;51.660;5.824;2023-02-28T10:12:00;4.35;;;1.50;;
60502;SDS011;51448;51.660;5.824;2023-02-28T10:14:33;4.93;;;1.25;;
60502;SDS011;51448;51.660;5.824;2023-02-28T10:17:10;4.68;;;1.77;;
60502;SDS011;51448;51.660;5.824;2023-02-28T10:20:05;3.50;;;1.55;;
60502;SDS011;51448;51.660;5.824;2023-02-28T10:22:52;3.33;;;1.60;;
60502;SDS011;51448;51.660;5.824;2023-02-28T10:25:35;3.45;;;1.67;;
60502;SDS011;51448;51.660;5.824;2023-02-28T10:28:12;4.53;;;1.52;;
60502;SDS011;51448;51.660;5.824;2023-02-28T10:30:45;4.32;;;1.58;;
60502;SDS011;51448;51.660;5.824;2023-02-28T10:33:18;4.85;;;1.50;;
60502;SDS011;51448;51.660;5.824;2023-02-28T10:35:52;4.13;;;1.70;;
60502;SDS011;51448;51.660;5.824;2023-02-28T10:38:22;3.65;;;1.40;;
60502;SDS011;51448;51.660;5.824;2023-02-28T10:41:12;3.65;;;1.52;;
60502;SDS011;51448;51.660;5.824;2023-02-28T10:47:00;3.38;;;1.50;;
60502;SDS011;51448;51.660;5.824;2023-02-28T10:49:28;3.60;;;1.50;;
60502;SDS011;51448;51.660;5.824;2023-02-28T10:51:59;4.28;;;1.60;;
60502;SDS011;51448;51.660;5.824;2023-02-28T10:57:06;3.60;;;1.50;;
60502;SDS011;51448;51.660;5.824;2023-02-28T11:00:05;3.38;;;1.58;;
60502;SDS011;51448;51.660;5.824;2023-02-28T11:02:59;3.53;;;1.45;;
60502;SDS011;51448;51.660;5.824;2023-02-28T11:05:29;2.35;;;1.30;;
60502;SDS011;51448;51.660;5.824;2023-02-28T11:10:48;4.68;;;1.67;;
60502;SDS011;51448;51.660;5.824;2023-02-28T11:13:32;4.00;;;1.85;;
60502;SDS011;51448;51.660;5.824;2023-02-28T11:16:07;4.63;;;2.10;;
60502;SDS011;51448;51.660;5.824;2023-02-28T11:18:52;3.35;;;1.60;;
60502;SDS011;51448;51.660;5.824;2023-02-28T11:21:29;3.15;;;1.40;;
60502;SDS011;51448;51.660;5.824;2023-02-28T11:24:04;4.20;;;1.63;;
60502;SDS011;51448;51.660;5.824;2023-02-28T11:26:41;3.70;;;1.75;;
60502;SDS011;51448;51.660;5.824;2023-02-28T11:29:26;3.45;;;1.38;;
60502;SDS011;51448;51.660;5.824;2023-02-28T11:34:47;4.22;;;1.77;;
60502;SDS011;51448;51.660;5.824;2023-02-28T11:37:31;3.80;;;1.80;;
60502;SDS011;51448;51.660;5.824;2023-02-28T11:40:00;4.10;;;1.95;;
60502;SDS011;51448;51.660;5.824;2023-02-28T11:46:12;3.25;;;1.73;;
60502;SDS011;51448;51.660;5.824;2023-02-28T11:48:27;2.92;;;1.42;;
60502;SDS011;51448;51.660;5.824;2023-02-28T11:51:28;4.72;;;2.00;;
60502;SDS011;51448;51.660;5.824;2023-02-28T11:54:21;4.47;;;1.70;;
60502;SDS011;51448;51.660;5.824;2023-02-28T12:04:15;4.93;;;1.98;;
60502;SDS011;51448;51.660;5.824;2023-02-28T12:06:55;4.55;;;1.90;;
60502;SDS011;51448;51.660;5.824;2023-02-28T12:09:58;5.97;;;1.88;;
60502;SDS011;51448;51.660;5.824;2023-02-28T12:19:21;3.80;;;1.55;;
60502;SDS011;51448;51.660;5.824;2023-02-28T12:22:16;3.63;;;1.63;;
60502;SDS011;51448;51.660;5.824;2023-02-28T12:25:18;3.83;;;1.60;;
60502;SDS011;51448;51.660;5.824;2023-02-28T12:28:03;5.22;;;1.88;;
60502;SDS011;51448;51.660;5.824;2023-02-28T12:30:32;4.85;;;1.70;;
60502;SDS011;51448;51.660;5.824;2023-02-28T12:33:06;3.20;;;1.50;;
60502;SDS011;51448;51.660;5.824;2023-02-28T12:35:57;3.70;;;1.60;;
60502;SDS011;51448;51.660;5.824;2023-02-28T12:38:43;3.20;;;1.40;;
60502;SDS011;51448;51.660;5.824;2023-02-28T12:41:34;4.00;;;1.35;;
60502;SDS011;51448;51.660;5.824;2023-02-28T12:44:34;6.00;;;1.98;;
60502;SDS011;51448;51.660;5.824;2023-02-28T12:47:18;5.47;;;2.00;;
60502;SDS011;51448;51.660;5.824;2023-02-28T12:49:54;5.55;;;2.50;;
60502;SDS011;51448;51.660;5.824;2023-02-28T12:58:38;4.22;;;1.85;;
60502;SDS011;51448;51.660;5.824;2023-02-28T13:10:20;5.03;;;2.08;;
60502;SDS011;51448;51.660;5.824;2023-02-28T13:12:50;6.00;;;2.03;;
60502;SDS011;51448;51.660;5.824;2023-02-28T13:15:22;5.40;;;2.20;;
60502;SDS011;51448;51.660;5.824;2023-02-28T13:17:56;4.45;;;1.90;;
60502;SDS011;51448;51.660;5.824;2023-02-28T13:20:28;8.63;;;2.10;;
60502;SDS011;51448;51.660;5.824;2023-02-28T13:23:02;4.75;;;2.00;;
60502;SDS011;51448;51.660;5.824;2023-02-28T13:28:02;5.18;;;2.17;;
60502;SDS011;51448;51.660;5.824;2023-02-28T13:33:34;5.20;;;2.00;;
60502;SDS011;51448;51.660;5.824;2023-02-28T13:36:23;4.68;;;1.90;;
60502;SDS011;51448;51.660;5.824;2023-02-28T13:38:58;5.20;;;2.42;;
60502;SDS011;51448;51.660;5.824;2023-02-28T13:42:23;6.35;;;2.05;;
60502;SDS011;51448;51.660;5.824;2023-02-28T13:45:40;5.97;;;2.45;;
60502;SDS011;51448;51.660;5.824;2023-02-28T13:47:55;5.57;;;2.20;;
60502;SDS011;51448;51.660;5.824;2023-02-28T13:56:00;5.20;;;1.98;;
60502;SDS011;51448;51.660;5.824;2023-02-28T13:59:15;4.15;;;1.88;;
60502;SDS011;51448;51.660;5.824;2023-02-28T14:01:49;6.18;;;2.25;;
60502;SDS011;51448;51.660;5.824;2023-02-28T14:04:37;5.30;;;1.90;;
60502;SDS011;51448;51.660;5.824;2023-02-28T14:07:33;4.53;;;1.88;;
60502;SDS011;51448;51.660;5.824;2023-02-28T14:10:21;4.43;;;1.75;;
60502;SDS011;51448;51.660;5.824;2023-02-28T14:13:11;4.32;;;1.80;;
60502;SDS011;51448;51.660;5.824;2023-02-28T14:15:44;5.47;;;2.10;;
60502;SDS011;51448;51.660;5.824;2023-02-28T14:18:23;5.67;;;1.97;;
60502;SDS011;51448;51.660;5.824;2023-02-28T14:21:09;7.85;;;2.05;;
60502;SDS011;51448;51.660;5.824;2023-02-28T14:26:41;4.20;;;1.90;;
60502;SDS011;51448;51.660;5.824;2023-02-28T14:29:52;5.60;;;1.95;;
60502;SDS011;51448;51.660;5.824;2023-02-28T14:32:54;4.07;;;2.13;;
60502;SDS011;51448;51.660;5.824;2023-02-28T14:35:55;4.30;;;2.00;;
60502;SDS011;51448;51.660;5.824;2023-02-28T14:41:29;5.13;;;2.28;;
60502;SDS011;51448;51.660;5.824;2023-02-28T14:44:15;5.70;;;2.40;;
60502;SDS011;51448;51.660;5.824;2023-02-28T14:46:44;4.15;;;2.22;;
60502;SDS011;51448;51.660;5.824;2023-02-28T14:49:20;4.40;;;2.28;;
60502;SDS011;51448;51.660;5.824;2023-02-28T14:54:45;6.38;;;2.30;;
60502;SDS011;51448;51.660;5.824;2023-02-28T14:57:31;5.75;;;2.28;;
60502;SDS011;51448;51.660;5.824;2023-02-28T15:02:48;5.85;;;2.50;;
60502;SDS011;51448;51.660;5.824;2023-02-28T15:05:22;4.95;;;2.38;;
60502;SDS011;51448;51.660;5.824;2023-02-28T15:10:50;4.85;;;2.40;;
60502;SDS011;51448;51.660;5.824;2023-02-28T15:13:46;4.75;;;2.42;;
60502;SDS011;51448;51.660;5.824;2023-02-28T15:16:31;5.78;;;2.45;;
60502;SDS011;51448;51.660;5.824;2023-02-28T15:19:20;4.35;;;2.17;;
60502;SDS011;51448;51.660;5.824;2023-02-28T15:21:54;5.85;;;2.72;;
60502;SDS011;51448;51.660;5.824;2023-02-28T15:24:52;6.03;;;2.53;;
60502;SDS011;51448;51.660;5.824;2023-02-28T15:27:21;5.85;;;2.35;;
60502;SDS011;51448;51.660;5.824;2023-02-28T15:29:55;4.60;;;2.15;;
60502;SDS011;51448;51.660;5.824;2023-02-28T15:32:31;4.70;;;2.40;;
60502;SDS011;51448;51.660;5.824;2023-02-28T15:38:33;6.10;;;2.80;;
60502;SDS011;51448;51.660;5.824;2023-02-28T15:40:55;4.97;;;2.70;;
60502;SDS011;51448;51.660;5.824;2023-02-28T15:46:02;4.75;;;2.40;;
60502;SDS011;51448;51.660;5.824;2023-02-28T15:48:38;6.35;;;2.70;;
60502;SDS011;51448;51.660;5.824;2023-02-28T15:51:32;5.60;;;2.70;;
60502;SDS011;51448;51.660;5.824;2023-02-28T15:54:05;5.57;;;2.65;;
60502;SDS011;51448;51.660;5.824;2023-02-28T15:56:43;4.88;;;2.60;;
60502;SDS011;51448;51.660;5.824;2023-02-28T15:59:18;4.95;;;2.60;;
60502;SDS011;51448;51.660;5.824;2023-02-28T16:05:12;5.15;;;2.35;;
60502;SDS011;51448;51.660;5.824;2023-02-28T16:08:13;4.87;;;2.60;;
60502;SDS011;51448;51.660;5.824;2023-02-28T16:10:42;6.68;;;2.80;;
60502;SDS011;51448;51.660;5.824;2023-02-28T16:13:11;5.30;;;2.88;;
60502;SDS011;51448;51.660;5.824;2023-02-28T16:18:11;4.82;;;2.75;;
60502;SDS011;51448;51.660;5.824;2023-02-28T16:20:40;5.95;;;2.90;;
60502;SDS011;51448;51.660;5.824;2023-02-28T16:23:08;5.32;;;2.65;;
60502;SDS011;51448;51.660;5.824;2023-02-28T16:25:37;5.80;;;2.60;;
60502;SDS011;51448;51.660;5.824;2023-02-28T16:28:20;5.32;;;2.42;;
60502;SDS011;51448;51.660;5.824;2023-02-28T16:30:59;5.07;;;2.75;;
60502;SDS011;51448;51.660;5.824;2023-02-28T16:33:30;5.93;;;2.75;;
60502;SDS011;51448;51.660;5.824;2023-02-28T16:35:59;5.13;;;2.83;;
60502;SDS011;51448;51.660;5.824;2023-02-28T16:38:28;5.10;;;2.80;;
60502;SDS011;51448;51.660;5.824;2023-02-28T16:40:56;4.40;;;2.40;;
60502;SDS011;51448;51.660;5.824;2023-02-28T16:43:27;5.63;;;2.83;;
60502;SDS011;51448;51.660;5.824;2023-02-28T16:45:55;5.18;;;2.50;;
60502;SDS011;51448;51.660;5.824;2023-02-28T16:48:27;5.13;;;2.50;;
60502;SDS011;51448;51.660;5.824;2023-02-28T16:50:55;5.75;;;2.55;;
60502;SDS011;51448;51.660;5.824;2023-02-28T16:53:23;6.38;;;2.70;;
60502;SDS011;51448;51.660;5.824;2023-02-28T16:55:50;6.07;;;2.70;;
60502;SDS011;51448;51.660;5.824;2023-02-28T16:58:18;5.60;;;2.47;;
60502;SDS011;51448;51.660;5.824;2023-02-28T17:00:48;5.07;;;2.50;;
60502;SDS011;51448;51.660;5.824;2023-02-28T17:03:24;5.53;;;2.80;;
60502;SDS011;51448;51.660;5.824;2023-02-28T17:06:00;5.00;;;2.50;;
60502;SDS011;51448;51.660;5.824;2023-02-28T17:08:28;6.88;;;2.90;;
60502;SDS011;51448;51.660;5.824;2023-02-28T17:10:59;5.20;;;2.80;;
60502;SDS011;51448;51.660;5.824;2023-02-28T17:13:27;6.45;;;3.28;;
60502;SDS011;51448;51.660;5.824;2023-02-28T17:15:54;6.18;;;3.17;;
60502;SDS011;51448;51.660;5.824;2023-02-28T17:18:22;5.45;;;2.72;;
60502;SDS011;51448;51.660;5.824;2023-02-28T17:20:50;6.22;;;3.28;;
60502;SDS011;51448;51.660;5.824;2023-02-28T17:23:18;5.57;;;3.17;;
60502;SDS011;51448;51.660;5.824;2023-02-28T17:25:49;7.28;;;3.40;;
60502;SDS011;51448;51.660;5.824;2023-02-28T17:28:24;5.55;;;3.17;;